Time;durP1;ratioP1;P1;durP2;ratioP2;P2;SDS_P1;SDS_P2;PMS_P1;PMS_P2;Temp;Humidity;BMP_temperature;BMP_pressure;BME280_temperature;BME280_humidity;BME280_pressure;Samples;Min_cycle;Max_cycle;Signal;HPM_P1;HPM_P2
2023/04/16 00:00:04;;;;;;;;;17.50;16.75;;;;;10.47;56.36;101715.59;4938255;28;45341;-58
2023/04/16 00:02:29;;;;;;;;;14.80;14.80;;;;;10.67;55.91;101756.25;4938125;28;45467;-56
2023/04/16 00:04:55;;;;;;;;;13.75;10.25;;;;;10.60;56.02;101749.75;4938213;28;45391;-57
2023/04/16 00:07:20;;;;;;;;;11.00;10.50;;;;;10.62;55.29;101754.03;4953098;28;45874;-56
2023/04/16 00:09:46;;;;;;;;;15.00;11.50;;;;;10.62;54.76;101765.00;4923608;28;45340;-56
2023/04/16 00:12:11;;;;;;;;;9.25;9.00;;;;;10.37;54.86;101728.69;4962058;28;45410;-57
2023/04/16 00:14:37;;;;;;;;;12.00;10.25;;;;;10.22;54.70;101703.97;4973598;28;45451;-57
2023/04/16 00:17:02;;;;;;;;;10.50;8.00;;;;;10.57;54.67;101762.84;4975501;28;45457;-58
2023/04/16 00:19:28;;;;;;;;;9.25;8.00;;;;;10.47;54.65;101761.41;4977024;28;45427;-57
2023/04/16 00:21:53;;;;;;;;;9.75;9.75;;;;;10.52;54.27;101767.19;4976360;28;45561;-58
2023/04/16 00:24:19;;;;;;;;;8.50;8.50;;;;;10.23;54.86;101733.09;4976578;28;45319;-58
2023/04/16 00:26:45;;;;;;;;;9.00;9.00;;;;;10.16;54.37;101728.34;4958952;28;45791;-58
2023/04/16 00:29:11;;;;;;;;;14.20;11.40;;;;;10.37;55.08;101757.00;4975411;28;45492;-58
2023/04/16 00:31:36;;;;;;;;;10.20;8.40;;;;;10.42;55.16;101764.69;4976452;28;45864;-56
2023/04/16 00:34:02;;;;;;;;;14.50;7.75;;;;;10.42;55.03;101762.81;4976265;28;45428;-58
2023/04/16 00:36:27;;;;;;;;;13.00;10.00;;;;;10.41;55.49;101757.50;4976134;28;45173;-57
2023/04/16 00:38:53;;;;;;;;;10.50;9.25;;;;;10.42;54.90;101760.06;4975260;28;45342;-58
2023/04/16 00:41:18;;;;;;;;;10.50;9.50;;;;;10.39;55.17;101765.91;4975971;28;45871;-58
2023/04/16 00:43:44;;;;;;;;;10.75;9.00;;;;;10.38;54.56;101768.81;4976227;28;45388;-58
2023/04/16 00:46:09;;;;;;;;;10.25;10.25;;;;;10.35;54.47;101758.22;4975199;28;45450;-58
2023/04/16 00:48:35;;;;;;;;;9.75;8.75;;;;;10.31;55.24;101766.81;4959234;28;45374;-57
2023/04/16 00:51:03;;;;;;;;;10.25;10.00;;;;;10.24;54.78;101754.88;4959079;28;46638;-57
2023/04/16 00:53:29;;;;;;;;;9.00;9.00;;;;;9.95;54.76;101709.88;4975013;28;45896;-58
2023/04/16 00:55:56;;;;;;;;;7.25;5.75;;;;;10.18;55.14;101758.34;4975585;28;45541;-58
2023/04/16 00:58:21;;;;;;;;;12.60;9.80;;;;;10.16;54.69;101758.53;4958844;28;45387;-58
2023/04/16 01:00:46;;;;;;;;;9.50;8.00;;;;;10.19;55.72;101761.97;4941549;28;48160;-59
2023/04/16 01:03:12;;;;;;;;;12.25;10.00;;;;;10.09;54.80;101763.06;4975996;28;45754;-57
2023/04/16 01:05:38;;;;;;;;;10.75;6.75;;;;;10.12;55.09;101764.59;4958536;28;45395;-58
2023/04/16 01:08:03;;;;;;;;;10.50;8.00;;;;;10.15;55.95;101762.31;4975303;28;45585;-58
2023/04/16 01:10:29;;;;;;;;;7.75;7.75;;;;;9.96;56.28;101735.38;4975822;28;47218;-57
2023/04/16 01:12:55;;;;;;;;;10.75;8.00;;;;;10.09;55.39;101743.00;4965816;28;45438;-58
2023/04/16 01:15:20;;;;;;;;;8.00;7.75;;;;;10.15;55.76;101761.47;4955631;28;45355;-57
2023/04/16 01:17:46;;;;;;;;;10.50;10.50;;;;;10.12;55.79;101762.69;4956552;28;45418;-58
2023/04/16 01:20:11;;;;;;;;;12.00;10.75;;;;;10.15;55.63;101765.06;4955425;28;45495;-59
2023/04/16 01:22:37;;;;;;;;;7.25;7.00;;;;;10.14;55.57;101766.09;4956063;28;45373;-58
2023/04/16 01:25:02;;;;;;;;;8.00;7.25;;;;;10.06;55.88;101762.56;4943574;28;45452;-58
2023/04/16 01:27:28;;;;;;;;;8.00;8.00;;;;;10.02;55.29;101762.94;4974775;28;45558;-57
2023/04/16 01:29:55;;;;;;;;;8.75;8.75;;;;;10.04;56.14;101762.78;4968685;28;46516;-57
2023/04/16 01:32:20;;;;;;;;;9.60;9.60;;;;;10.05;56.33;101753.50;4973829;28;45361;-57
2023/04/16 01:34:46;;;;;;;;;10.75;10.75;;;;;10.06;56.60;101751.59;4974287;28;45423;-57
2023/04/16 01:37:11;;;;;;;;;12.75;10.50;;;;;10.05;56.31;101761.72;4975969;28;45271;-56
2023/04/16 01:39:37;;;;;;;;;13.00;10.75;;;;;9.85;56.27;101720.22;4973951;28;47944;-58
2023/04/16 01:42:02;;;;;;;;;9.25;9.25;;;;;9.88;55.92;101731.69;4974960;28;45310;-57
2023/04/16 01:44:29;;;;;;;;;10.25;10.25;;;;;10.05;56.87;101759.00;4974300;28;45216;-58
2023/04/16 01:46:55;;;;;;;;;8.80;8.80;;;;;10.00;56.18;101756.81;4973978;28;45513;-57
2023/04/16 01:49:20;;;;;;;;;11.25;9.75;;;;;10.00;55.73;101762.28;4975207;28;46220;-58
2023/04/16 01:51:46;;;;;;;;;10.00;7.50;;;;;10.00;55.98;101772.41;4973878;28;45497;-57
2023/04/16 01:54:12;;;;;;;;;8.75;8.75;;;;;9.96;55.03;101766.44;4974104;28;45449;-57
2023/04/16 01:56:37;;;;;;;;;9.75;8.25;;;;;9.86;56.36;101769.41;4974323;28;45359;-57
2023/04/16 01:59:03;;;;;;;;;9.75;8.75;;;;;9.59;56.46;101724.16;4973571;28;47627;-59
2023/04/16 02:01:28;;;;;;;;;10.25;9.00;;;;;9.92;56.60;101780.69;4975147;28;45318;-58
2023/04/16 02:03:54;;;;;;;;;11.00;7.75;;;;;9.74;56.66;101748.91;4975366;28;45386;-58
2023/04/16 02:06:19;;;;;;;;;13.25;12.00;;;;;9.81;57.23;101766.34;4975520;28;45359;-58
2023/04/16 02:08:45;;;;;;;;;11.75;11.75;;;;;9.76;57.41;101779.75;4973825;28;46142;-57
2023/04/16 02:11:10;;;;;;;;;9.00;9.00;;;;;9.52;57.23;101753.34;4974926;28;45359;-57
2023/04/16 02:13:35;;;;;;;;;12.75;12.75;;;;;9.61;57.61;101776.94;4963156;28;45375;-59
2023/04/16 02:16:01;;;;;;;;;15.00;15.00;;;;;9.61;57.85;101782.44;4959550;28;45298;-58
2023/04/16 02:18:27;;;;;;;;;14.25;13.50;;;;;9.59;58.74;101785.34;4958962;28;45868;-58
2023/04/16 02:20:52;;;;;;;;;15.25;14.25;;;;;9.41;58.70;101762.81;4958972;28;45413;-58
2023/04/16 02:23:18;;;;;;;;;17.25;14.25;;;;;9.53;59.05;101788.78;4957463;28;45407;-58
2023/04/16 02:25:46;;;;;;;;;13.50;12.50;;;;;9.20;58.57;101743.25;4959526;28;45348;-58
2023/04/16 02:28:13;;;;;;;;;13.40;12.40;;;;;9.42;58.71;101780.97;4958011;28;46670;-57
2023/04/16 02:30:39;;;;;;;;;14.00;10.80;;;;;9.41;58.87;101782.88;4959424;28;45384;-58
2023/04/16 02:33:06;;;;;;;;;17.25;13.25;;;;;9.29;59.32;101765.13;4958769;28;45209;-57
2023/04/16 02:35:32;;;;;;;;;12.80;10.00;;;;;9.15;59.08;101753.00;4958947;28;45956;-57
2023/04/16 02:37:58;;;;;;;;;10.20;9.80;;;;;9.33;59.37;101782.88;4941425;28;46635;-58
2023/04/16 02:40:23;;;;;;;;;13.00;12.00;;;;;9.34;58.73;101781.88;4957013;28;46035;-56
2023/04/16 02:42:49;;;;;;;;;11.50;11.50;;;;;9.14;59.22;101752.16;4959327;28;45217;-58
2023/04/16 02:45:14;;;;;;;;;13.25;12.25;;;;;8.91;59.61;101711.03;4941749;28;45375;-57
2023/04/16 02:47:40;;;;;;;;;13.00;9.00;;;;;9.17;58.61;101749.06;4957134;28;47369;-58
2023/04/16 02:50:06;;;;;;;;;12.75;10.25;;;;;9.33;59.57;101783.75;4958584;28;45523;-56
2023/04/16 02:52:32;;;;;;;;;11.60;9.80;;;;;9.33;58.76;101788.38;4958869;28;45432;-57
2023/04/16 02:54:58;;;;;;;;;9.50;9.50;;;;;9.28;59.22;101777.13;4958944;28;45723;-59
2023/04/16 02:57:23;;;;;;;;;9.00;9.00;;;;;9.26;59.05;101782.75;4958445;28;45417;-57
2023/04/16 02:59:49;;;;;;;;;12.25;8.50;;;;;9.29;58.94;101776.91;4958725;28;45462;-57
2023/04/16 03:02:15;;;;;;;;;9.50;9.25;;;;;9.26;58.99;101785.50;4958662;28;45403;-56
2023/04/16 03:04:41;;;;;;;;;11.20;9.20;;;;;9.23;58.61;101780.34;4958726;28;45249;-58
2023/04/16 03:07:07;;;;;;;;;9.00;9.00;;;;;9.25;58.42;101783.78;4958851;28;45383;-57
2023/04/16 03:09:33;;;;;;;;;9.40;8.20;;;;;9.13;59.23;101769.63;4958390;28;45369;-58
2023/04/16 03:12:00;;;;;;;;;11.75;8.75;;;;;9.12;59.52;101776.13;4959314;28;45372;-57
2023/04/16 03:14:26;;;;;;;;;10.60;9.20;;;;;8.93;59.29;101748.13;4952655;28;45644;-59
2023/04/16 03:16:51;;;;;;;;;11.50;7.75;;;;;9.14;58.74;101784.19;4954527;28;45915;-57
2023/04/16 03:19:17;;;;;;;;;7.75;7.00;;;;;9.01;58.91;101768.31;4957666;28;45480;-58
2023/04/16 03:21:42;;;;;;;;;10.00;10.00;;;;;9.05;58.91;101772.38;4958479;28;45225;-58
2023/04/16 03:24:07;;;;;;;;;8.00;8.00;;;;;9.14;58.91;101792.38;4956096;28;45356;-56
2023/04/16 03:26:33;;;;;;;;;8.75;7.75;;;;;9.18;58.73;101793.75;4958094;28;46325;-57
2023/04/16 03:28:58;;;;;;;;;10.75;10.75;;;;;9.20;59.06;101788.94;4972744;28;45312;-59
2023/04/16 03:31:24;;;;;;;;;9.00;9.00;;;;;9.20;58.37;101789.81;4972944;28;45240;-56
2023/04/16 03:33:50;;;;;;;;;7.25;5.00;;;;;9.20;58.56;101788.94;4958173;28;45411;-58
2023/04/16 03:36:16;;;;;;;;;9.60;8.40;;;;;9.15;58.02;101792.22;4958244;28;46464;-55
2023/04/16 03:38:41;;;;;;;;;10.25;8.50;;;;;8.87;58.98;101746.13;4957609;28;45178;-58
2023/04/16 03:41:06;;;;;;;;;9.25;6.75;;;;;9.11;59.73;101785.38;4956801;28;45525;-57
2023/04/16 03:43:32;;;;;;;;;7.50;7.50;;;;;9.09;59.05;101782.81;4957899;28;45190;-58
2023/04/16 03:45:57;;;;;;;;;8.00;8.00;;;;;9.07;59.08;101782.13;4957407;28;46130;-57
2023/04/16 03:48:23;;;;;;;;;9.00;8.00;;;;;8.93;59.31;101761.81;4957643;28;45257;-56
2023/04/16 03:50:48;;;;;;;;;9.00;9.00;;;;;9.03;58.46;101778.03;4956419;28;45304;-58
2023/04/16 03:53:14;;;;;;;;;13.00;8.25;;;;;8.98;59.18;101775.00;4957719;28;45594;-57
2023/04/16 03:55:40;;;;;;;;;9.00;8.00;;;;;8.92;58.78;101775.69;4957202;28;46934;-60
2023/04/16 03:58:06;;;;;;;;;11.40;9.60;;;;;8.65;59.23;101744.97;4957576;28;45425;-56
2023/04/16 04:00:31;;;;;;;;;14.50;11.50;;;;;8.60;58.98;101744.63;4972346;28;45453;-57
2023/04/16 04:02:57;;;;;;;;;13.00;8.00;;;;;8.64;59.91;101757.78;4957537;28;45471;-58
2023/04/16 04:05:22;;;;;;;;;9.50;8.75;;;;;8.86;59.51;101796.41;4956087;28;47268;-56
2023/04/16 04:07:48;;;;;;;;;11.50;8.75;;;;;8.84;59.41;101786.66;4952706;28;45495;-56
2023/04/16 04:10:13;;;;;;;;;11.00;11.00;;;;;8.86;59.06;101799.13;4938204;28;45375;-57
2023/04/16 04:12:39;;;;;;;;;10.00;10.00;;;;;8.73;59.26;101780.53;4943601;28;45378;-57
2023/04/16 04:15:05;;;;;;;;;7.25;7.25;;;;;8.82;59.30;101808.75;4942825;28;47522;-59
2023/04/16 04:17:30;;;;;;;;;12.80;9.40;;;;;8.76;59.19;101806.69;4975855;28;45904;-57
2023/04/16 04:19:56;;;;;;;;;9.50;8.25;;;;;8.60;59.56;101772.84;4976412;28;45439;-58
2023/04/16 04:22:21;;;;;;;;;14.00;11.25;;;;;8.79;59.46;101804.47;4975622;28;45418;-58
2023/04/16 04:24:46;;;;;;;;;12.50;10.50;;;;;8.79;59.57;101809.94;4976498;28;46020;-58
2023/04/16 04:27:12;;;;;;;;;11.25;9.00;;;;;8.79;59.72;101814.56;4976761;28;45303;-58
2023/04/16 04:29:37;;;;;;;;;17.25;14.50;;;;;8.64;59.79;101795.25;4976752;28;45383;-58
2023/04/16 04:32:03;;;;;;;;;12.00;10.50;;;;;8.67;60.75;101811.31;4976703;28;45479;-57
2023/04/16 04:34:29;;;;;;;;;16.75;13.00;;;;;8.63;60.87;101809.94;4974975;28;46498;-55
2023/04/16 04:36:54;;;;;;;;;20.50;13.00;;;;;8.67;60.42;101811.31;4976165;28;45296;-58
2023/04/16 04:39:20;;;;;;;;;11.50;11.50;;;;;8.66;61.03;101810.47;4971207;28;45576;-58
2023/04/16 04:41:46;;;;;;;;;14.20;12.60;;;;;8.72;60.93;101811.66;4957281;28;45541;-58
2023/04/16 04:44:12;;;;;;;;;15.60;12.60;;;;;8.60;61.26;101802.94;4956882;28;45405;-58
2023/04/16 04:46:38;;;;;;;;;28.25;19.75;;;;;8.59;62.44;101809.44;4957028;28;45791;-57
2023/04/16 04:49:04;;;;;;;;;16.60;16.20;;;;;8.54;63.46;101820.06;4956991;28;45427;-57
2023/04/16 04:51:30;;;;;;;;;23.00;18.25;;;;;8.49;63.53;101814.22;4957547;28;45432;-57
2023/04/16 04:53:55;;;;;;;;;25.75;22.25;;;;;8.49;64.10;101827.91;4956448;28;45983;-57
2023/04/16 04:56:21;;;;;;;;;30.00;26.50;;;;;8.43;63.88;101818.47;4956480;28;45828;-56
2023/04/16 04:58:48;;;;;;;;;26.00;22.25;;;;;8.34;64.01;101822.25;4957021;28;45303;-57
2023/04/16 05:01:13;;;;;;;;;28.40;18.80;;;;;8.32;64.41;101832.53;4956907;28;45715;-58
2023/04/16 05:03:39;;;;;;;;;26.00;23.25;;;;;8.28;65.03;101832.84;4956650;28;45289;-57
2023/04/16 05:06:05;;;;;;;;;26.25;24.25;;;;;8.37;64.76;101825.50;4955142;28;45713;-56
2023/04/16 05:08:31;;;;;;;;;31.60;28.80;;;;;8.40;64.95;101827.03;4956722;28;45558;-59
2023/04/16 05:10:56;;;;;;;;;29.25;26.00;;;;;8.28;65.05;101830.13;4956776;28;45643;-56
2023/04/16 05:13:22;;;;;;;;;27.50;22.00;;;;;7.60;65.31;101711.81;4961081;28;46430;-59
2023/04/16 05:15:47;;;;;;;;;27.00;26.25;;;;;8.28;64.97;101832.00;4936211;28;45407;-57
2023/04/16 05:18:13;;;;;;;;;21.50;19.50;;;;;8.31;65.11;101839.03;4955956;28;45339;-54
2023/04/16 05:20:38;;;;;;;;;26.00;23.50;;;;;8.30;64.71;101840.03;4956145;28;45296;-57
2023/04/16 05:23:04;;;;;;;;;28.75;22.50;;;;;8.02;65.70;101791.13;4934176;28;46361;-56
2023/04/16 05:25:29;;;;;;;;;30.25;28.25;;;;;8.34;65.55;101838.66;4978266;28;45387;-57
2023/04/16 05:27:55;;;;;;;;;29.25;27.25;;;;;8.34;64.79;101839.53;4975284;28;45384;-58
2023/04/16 05:30:20;;;;;;;;;27.50;22.00;;;;;7.96;64.95;101788.03;4939558;28;45775;-57
2023/04/16 05:32:46;;;;;;;;;33.75;27.25;;;;;8.33;65.04;101847.91;4974553;28;45541;-59
2023/04/16 05:35:11;;;;;;;;;31.50;28.00;;;;;8.12;65.31;101820.00;4975601;28;45434;-57
2023/04/16 05:37:37;;;;;;;;;37.25;27.00;;;;;8.37;65.11;101852.88;4957783;28;45412;-58
2023/04/16 05:40:02;;;;;;;;;32.50;26.25;;;;;8.12;65.34;101816.44;4975916;28;45275;-58
2023/04/16 05:42:28;;;;;;;;;33.50;26.00;;;;;8.47;64.84;101860.03;4974962;28;45420;-57
2023/04/16 05:44:53;;;;;;;;;35.75;27.25;;;;;8.47;65.52;101868.25;4990467;28;45343;-58
2023/04/16 05:47:20;;;;;;;;;34.25;26.25;;;;;8.48;65.04;101861.78;4974680;28;45334;-58
2023/04/16 05:49:45;;;;;;;;;37.60;30.20;;;;;8.44;64.57;101869.47;4975198;28;45388;-57
2023/04/16 05:52:11;;;;;;;;;30.00;26.25;;;;;8.17;65.62;101827.69;4974043;28;45407;-58
2023/04/16 05:54:36;;;;;;;;;33.25;28.75;;;;;8.41;65.88;101878.00;4973341;28;45525;-57
2023/04/16 05:57:02;;;;;;;;;31.00;29.50;;;;;8.37;65.65;101866.53;4974139;28;45473;-56
2023/04/16 05:59:29;;;;;;;;;34.00;29.75;;;;;8.41;65.17;101867.94;4990021;28;45315;-57
2023/04/16 06:01:54;;;;;;;;;31.60;27.00;;;;;8.23;65.83;101851.63;4990049;28;46856;-57
2023/04/16 06:04:20;;;;;;;;;31.25;26.50;;;;;8.37;65.64;101888.44;4974563;28;45466;-57
2023/04/16 06:06:45;;;;;;;;;35.25;32.00;;;;;8.06;65.79;101844.47;4990421;28;45264;-56
2023/04/16 06:09:11;;;;;;;;;37.50;35.00;;;;;8.36;65.03;101889.47;4975454;28;45397;-57
2023/04/16 06:11:36;;;;;;;;;36.25;32.50;;;;;8.43;65.59;101881.41;4974623;28;45756;-58
2023/04/16 06:14:02;;;;;;;;;42.75;33.25;;;;;8.53;65.75;101887.63;4979534;28;45221;-57
2023/04/16 06:16:27;;;;;;;;;31.25;28.75;;;;;8.62;65.49;101880.28;4961780;28;45354;-57
2023/04/16 06:18:53;;;;;;;;;32.75;31.00;;;;;7.98;65.32;101764.13;4970891;28;45434;-58
2023/04/16 06:21:18;;;;;;;;;40.00;34.50;;;;;8.75;64.35;101874.25;4974412;28;46757;-56
2023/04/16 06:23:43;;;;;;;;;29.75;27.00;;;;;8.79;64.23;101877.50;4974293;28;45447;-56
2023/04/16 06:26:09;;;;;;;;;32.50;27.75;;;;;8.87;64.17;101876.66;4975040;28;45376;-56
2023/04/16 06:28:35;;;;;;;;;29.00;27.25;;;;;8.93;64.13;101878.72;4974894;28;45675;-57
2023/04/16 06:31:00;;;;;;;;;29.75;26.00;;;;;8.98;64.09;101880.91;4956878;28;47000;-58
2023/04/16 06:33:26;;;;;;;;;35.00;28.50;;;;;9.05;63.60;101884.66;4974904;28;45443;-58
2023/04/16 06:35:51;;;;;;;;;35.25;28.75;;;;;9.04;64.16;101883.84;4974512;28;45382;-58
2023/04/16 06:38:17;;;;;;;;;32.75;30.00;;;;;8.80;63.50;101838.16;4957148;28;45558;-59
2023/04/16 06:40:43;;;;;;;;;32.00;31.75;;;;;9.06;64.35;101880.91;4956840;28;46300;-58
2023/04/16 06:43:08;;;;;;;;;37.25;32.00;;;;;8.99;64.49;101880.75;4975017;28;45394;-59
2023/04/16 06:45:34;;;;;;;;;35.25;29.75;;;;;9.03;63.37;101886.75;4974817;28;45395;-58
2023/04/16 06:48:00;;;;;;;;;35.25;26.00;;;;;9.01;64.45;101880.59;4974750;28;45460;-59
2023/04/16 06:50:27;;;;;;;;;40.40;28.20;;;;;8.97;64.16;101888.31;4973307;28;45415;-56
2023/04/16 06:52:53;;;;;;;;;29.80;27.60;;;;;8.72;63.58;101852.72;4973398;28;45352;-58
2023/04/16 06:55:18;;;;;;;;;33.00;28.50;;;;;8.94;64.14;101884.03;4974723;28;45347;-59
2023/04/16 06:57:44;;;;;;;;;29.50;26.25;;;;;8.99;63.82;101894.44;4975052;28;45344;-58
2023/04/16 07:00:10;;;;;;;;;35.25;28.25;;;;;9.00;63.41;101887.94;4975974;28;47129;-56
2023/04/16 07:02:36;;;;;;;;;30.00;25.60;;;;;9.08;63.92;101892.56;4978058;28;45497;-53
2023/04/16 07:05:01;;;;;;;;;40.25;31.00;;;;;9.08;63.64;101889.81;4977676;28;45375;-52
2023/04/16 07:07:27;;;;;;;;;34.75;29.50;;;;;9.03;64.39;101893.06;4978652;28;45486;-54
2023/04/16 07:09:52;;;;;;;;;37.25;29.75;;;;;8.99;63.86;101896.31;4977540;28;46609;-55
2023/04/16 07:12:18;;;;;;;;;39.75;32.25;;;;;8.92;64.81;101901.66;4977627;28;45387;-56
2023/04/16 07:14:44;;;;;;;;;34.80;31.40;;;;;8.94;64.33;101892.22;4972740;28;45477;-56
2023/04/16 07:17:09;;;;;;;;;38.25;35.75;;;;;9.08;63.88;101898.88;4996417;28;45645;-57
2023/04/16 07:19:35;;;;;;;;;36.25;32.50;;;;;9.12;64.44;101904.03;4997290;28;46172;-57
2023/04/16 07:22:01;;;;;;;;;37.20;34.40;;;;;9.03;63.30;101895.78;4997425;28;45450;-57
2023/04/16 07:24:27;;;;;;;;;33.25;27.75;;;;;9.00;64.02;101898.88;4994902;28;45410;-62
2023/04/16 07:26:52;;;;;;;;;33.75;30.75;;;;;8.99;64.30;101897.19;4967632;28;45361;-57
2023/04/16 07:29:17;;;;;;;;;47.75;38.50;;;;;9.06;63.68;101895.47;4996957;28;46064;-57
2023/04/16 07:31:43;;;;;;;;;41.00;32.25;;;;;9.03;63.76;101887.56;4997024;28;45438;-58
2023/04/16 07:34:09;;;;;;;;;36.40;34.80;;;;;9.09;63.68;101889.63;4995892;28;45470;-57
2023/04/16 07:36:35;;;;;;;;;32.50;30.25;;;;;8.96;64.30;101859.19;4997356;28;45620;-57
2023/04/16 07:39:00;;;;;;;;;33.75;29.50;;;;;9.28;64.32;101900.41;4997067;28;46511;-57
2023/04/16 07:41:26;;;;;;;;;39.50;32.75;;;;;9.09;63.98;101856.75;4995697;28;45393;-57
2023/04/16 07:43:51;;;;;;;;;46.75;38.50;;;;;9.27;64.00;101884.97;4995877;28;45551;-58
2023/04/16 07:46:17;;;;;;;;;39.25;29.75;;;;;9.39;63.14;101897.25;4995564;28;45702;-58
2023/04/16 07:48:42;;;;;;;;;36.00;32.75;;;;;9.42;63.12;101909.75;4996821;28;45541;-57
2023/04/16 07:51:08;;;;;;;;;36.00;29.75;;;;;9.43;63.41;101895.03;4996764;28;45377;-55
2023/04/16 07:53:33;;;;;;;;;41.75;35.75;;;;;9.45;62.77;101891.06;4995450;28;45518;-55
2023/04/16 07:55:59;;;;;;;;;45.25;35.50;;;;;9.55;63.01;101901.00;4997077;28;45382;-57
2023/04/16 07:58:25;;;;;;;;;43.25;35.00;;;;;9.55;62.57;101906.47;4995410;28;46056;-58
2023/04/16 08:00:50;;;;;;;;;40.25;35.00;;;;;9.58;62.32;101914.34;4997060;28;45445;-58
2023/04/16 08:03:16;;;;;;;;;39.75;29.25;;;;;9.58;62.84;101912.47;4996812;28;45414;-56
2023/04/16 08:05:42;;;;;;;;;28.20;26.60;;;;;9.61;61.95;101905.78;4996836;28;45312;-58
2023/04/16 08:08:07;;;;;;;;;42.25;34.00;;;;;9.40;61.78;101867.97;4996763;28;46038;-59
2023/04/16 08:10:33;;;;;;;;;34.75;32.50;;;;;9.73;61.79;101907.06;4995948;28;45757;-59
2023/04/16 08:13:01;;;;;;;;;36.75;35.00;;;;;9.61;61.00;101883.84;4996661;28;45291;-58
2023/04/16 08:15:27;;;;;;;;;36.60;30.60;;;;;9.86;61.41;101925.72;4996705;28;45413;-57
2023/04/16 08:17:52;;;;;;;;;39.50;33.00;;;;;9.84;61.75;101911.34;4995194;28;45487;-57
2023/04/16 08:20:18;;;;;;;;;38.75;31.00;;;;;9.92;61.25;101923.28;4996276;28;45726;-62
2023/04/16 08:22:44;;;;;;;;;37.25;28.00;;;;;9.87;61.77;101905.47;4995287;28;45372;-56
2023/04/16 08:25:10;;;;;;;;;35.20;29.20;;;;;9.99;61.53;101916.91;4995353;28;45370;-57
2023/04/16 08:27:36;;;;;;;;;35.25;29.75;;;;;9.98;61.51;101912.44;4983936;28;45590;-57
2023/04/16 08:30:01;;;;;;;;;31.75;28.25;;;;;10.04;61.22;101919.13;4962619;28;46554;-57
2023/04/16 08:32:27;;;;;;;;;28.25;28.25;;;;;10.08;61.72;101923.19;4968009;28;45431;-59
2023/04/16 08:34:53;;;;;;;;;45.25;38.25;;;;;10.08;60.78;101930.59;4960547;28;45553;-56
2023/04/16 08:37:18;;;;;;;;;34.75;31.75;;;;;10.06;61.59;101925.28;4975699;28;45532;-58
2023/04/16 08:39:44;;;;;;;;;38.00;33.00;;;;;10.09;61.35;101932.28;4973424;28;45541;-59
2023/04/16 08:42:13;;;;;;;;;44.75;36.50;;;;;10.08;61.02;101928.69;4974895;28;45447;-59
2023/04/16 08:44:42;;;;;;;;;43.40;37.00;;;;;10.12;61.93;101930.03;4974342;28;45508;-53
2023/04/16 08:47:08;;;;;;;;;38.60;35.20;;;;;10.16;61.66;101917.66;4936054;28;45762;-60
2023/04/16 08:49:33;;;;;;;;;29.50;26.00;;;;;10.31;60.46;101933.38;4962779;28;45681;-60
2023/04/16 08:51:59;;;;;;;;;35.75;31.50;;;;;10.35;59.85;101933.88;4968164;28;45861;-60
2023/04/16 08:54:38;;;;;;;;;37.50;30.25;;;;;10.38;59.35;101925.25;4968086;28;45433;-58
2023/04/16 08:57:05;;;;;;;;;41.00;29.40;;;;;10.47;58.69;101928.84;4966510;28;45932;-58
2023/04/16 08:59:30;;;;;;;;;30.00;26.40;;;;;10.47;58.49;101921.47;4974539;28;45271;-56
2023/04/16 09:01:57;;;;;;;;;31.50;23.75;;;;;10.37;57.84;101896.09;4957238;28;45446;-56
2023/04/16 09:04:26;;;;;;;;;28.20;24.80;;;;;10.63;58.17;101925.13;4972219;28;46733;-61
2023/04/16 09:06:51;;;;;;;;;26.00;26.00;;;;;10.76;57.74;101936.34;4966218;28;45811;-61
2023/04/16 09:09:16;;;;;;;;;27.00;21.00;;;;;10.89;56.65;101934.88;4970873;28;45495;-63
2023/04/16 09:11:43;;;;;;;;;26.25;22.75;;;;;10.93;57.01;101928.81;4953544;28;45411;-63
2023/04/16 09:14:08;;;;;;;;;29.20;23.80;;;;;11.03;56.91;101925.81;4960064;28;45602;-63
2023/04/16 09:16:34;;;;;;;;;31.25;21.25;;;;;11.06;55.83;101936.41;4992303;28;45498;-62
2023/04/16 09:19:00;;;;;;;;;24.00;19.25;;;;;11.09;55.95;101940.69;4993175;28;45557;-61
2023/04/16 09:21:26;;;;;;;;;17.50;11.00;;;;;11.09;53.83;101927.81;4971758;28;46234;-61
2023/04/16 09:23:52;;;;;;;;;23.40;21.20;;;;;11.15;55.00;101928.94;4954431;28;45315;-61
2023/04/16 09:26:18;;;;;;;;;28.25;21.50;;;;;11.28;55.06;101931.06;4971504;28;46382;-63
2023/04/16 09:28:45;;;;;;;;;26.60;23.20;;;;;11.42;54.45;101929.34;4927810;28;45775;-62
2023/04/16 09:31:17;;;;;;;;;22.80;21.00;;;;;11.51;53.85;101938.38;4953549;28;45859;-60
2023/04/16 09:33:43;;;;;;;;;28.00;21.60;;;;;11.50;53.56;101929.28;4969927;28;45406;-61
2023/04/16 09:36:09;;;;;;;;;29.20;22.60;;;;;11.56;53.62;101935.91;4961321;28;46282;-61
2023/04/16 09:38:53;;;;;;;;;20.50;19.25;;;;;11.50;53.43;101926.53;4980612;28;45461;-59
2023/04/16 09:41:18;;;;;;;;;22.00;20.80;;;;;11.61;53.72;101940.84;4964793;28;46611;-63
2023/04/16 09:44:05;;;;;;;;;28.75;23.25;;;;;11.68;53.62;101944.53;4970800;28;45675;-60
2023/04/16 09:46:40;;;;;;;;;27.60;24.80;;;;;11.73;53.31;101944.81;4957497;28;45510;-60
2023/04/16 09:49:16;;;;;;;;;24.40;16.40;;;;;11.57;52.45;101901.03;4977060;28;45575;-62
2023/04/16 09:51:42;;;;;;;;;21.00;20.20;;;;;11.70;52.61;101925.09;4968952;28;45874;-62
2023/04/16 09:54:08;;;;;;;;;21.60;21.60;;;;;11.80;52.52;101943.00;4940075;28;45650;-62
2023/04/16 09:56:39;;;;;;;;;18.75;18.75;;;;;11.89;52.48;101949.28;4963131;28;46389;-62
2023/04/16 09:59:05;;;;;;;;;21.60;16.80;;;;;11.96;52.71;101938.38;4976087;28;45715;-62
2023/04/16 10:01:30;;;;;;;;;22.25;16.75;;;;;11.95;50.95;101933.06;4985185;28;45624;-62
2023/04/16 10:03:57;;;;;;;;;18.00;17.00;;;;;12.03;50.36;101942.09;4973895;28;45498;-62
2023/04/16 10:06:24;;;;;;;;;21.00;17.20;;;;;12.02;50.29;101934.81;4967194;28;46887;-61
2023/04/16 10:08:57;;;;;;;;;21.60;18.00;;;;;12.04;50.66;101926.41;4972477;28;45410;-61
2023/04/16 10:11:22;;;;;;;;;24.80;22.80;;;;;12.20;51.22;101939.09;4969215;28;45672;-61
2023/04/16 10:13:48;;;;;;;;;41.75;30.25;;;;;12.25;50.94;101935.75;4973246;28;45711;-60
2023/04/16 10:16:13;;;;;;;;;26.50;22.25;;;;;12.16;51.09;101918.50;4992456;28;46592;-61
2023/04/16 10:18:40;;;;;;;;;21.50;18.25;;;;;12.38;49.79;101935.06;4978625;28;45605;-61
2023/04/16 10:21:06;;;;;;;;;20.00;16.80;;;;;12.48;49.84;101924.56;4980756;28;45652;-61
2023/04/16 10:23:32;;;;;;;;;15.60;15.60;;;;;12.43;49.14;101899.56;4988373;28;45545;-61
2023/04/16 10:25:58;;;;;;;;;16.50;14.50;;;;;12.80;48.36;101952.66;4972041;28;45500;-58
2023/04/16 10:28:24;;;;;;;;;17.60;14.80;;;;;12.91;48.99;101950.44;4966616;28;45470;-64
2023/04/16 10:30:52;;;;;;;;;17.25;16.25;;;;;13.03;48.15;101946.09;4972030;28;45510;-56
2023/04/16 10:33:23;;;;;;;;;15.20;14.80;;;;;13.00;48.60;101928.03;4971586;28;45665;-59
2023/04/16 10:35:49;;;;;;;;;15.60;12.00;;;;;13.21;48.56;101936.44;4959982;28;47165;-57
2023/04/16 10:38:23;;;;;;;;;19.25;16.00;;;;;13.35;48.04;101941.00;4975647;28;45345;-60
2023/04/16 10:40:48;;;;;;;;;14.20;13.00;;;;;13.47;49.02;101934.97;4922680;28;45485;-58
2023/04/16 10:43:17;;;;;;;;;25.50;20.50;;;;;13.62;48.14;101932.09;4976857;28;45599;-58
2023/04/16 10:45:43;;;;;;;;;18.40;16.60;;;;;13.72;48.24;101940.84;4975363;28;47601;-59
2023/04/16 10:48:08;;;;;;;;;20.25;18.00;;;;;13.83;47.85;101940.28;4976986;28;45436;-59
2023/04/16 10:50:37;;;;;;;;;14.50;13.25;;;;;13.92;47.97;101940.97;4975450;28;45661;-60
2023/04/16 10:53:23;;;;;;;;;15.80;15.80;;;;;14.07;48.18;101938.06;4975287;28;45412;-59
2023/04/16 10:56:07;;;;;;;;;18.20;15.60;;;;;13.90;47.40;101890.66;4976148;28;45800;-58
2023/04/16 10:58:34;;;;;;;;;14.00;14.00;;;;;13.99;46.49;101905.13;4976131;28;45335;-58
2023/04/16 11:01:00;;;;;;;;;15.60;14.60;;;;;14.21;46.72;101933.41;4975273;28;45281;-58
2023/04/16 11:03:32;;;;;;;;;19.40;16.80;;;;;14.22;46.48;101920.47;4965964;28;45515;-55
2023/04/16 11:06:15;;;;;;;;;16.40;15.60;;;;;14.32;46.64;101922.84;4955429;28;45918;-60
2023/04/16 11:08:42;;;;;;;;;16.20;15.20;;;;;14.43;46.87;101930.53;4941357;28;45790;-57
2023/04/16 11:11:08;;;;;;;;;17.20;16.00;;;;;14.49;46.42;101920.53;4957614;28;45434;-57